sensor_id;sensor_type;location;lat;lon;timestamp;noise_LAeq;noise_LA_min;noise_LA_max;noise_LA01;noise_LA95
67900;Laerm;54700;51.796;10.956;2022-10-04T00:01:08;33.78;29.01;53.39;;
67900;Laerm;54700;51.796;10.956;2022-10-04T00:03:42;32.16;28.35;39.11;;
67900;Laerm;54700;51.796;10.956;2022-10-04T00:06:14;29.76;27.24;37.66;;
67900;Laerm;54700;51.796;10.956;2022-10-04T00:08:47;34.31;28.11;46.38;;
67900;Laerm;54700;51.796;10.956;2022-10-04T00:11:22;30.69;27.59;39.58;;
67900;Laerm;54700;51.796;10.956;2022-10-04T00:13:55;30.60;27.97;38.24;;
67900;Laerm;54700;51.796;10.956;2022-10-04T00:16:27;48.91;28.27;65.01;;
67900;Laerm;54700;51.796;10.956;2022-10-04T00:22:10;44.34;27.94;59.48;;
67900;Laerm;54700;51.796;10.956;2022-10-04T00:31:08;30.91;27.75;39.39;;
67900;Laerm;54700;51.796;10.956;2022-10-04T00:33:40;47.46;28.49;66.09;;
67900;Laerm;54700;51.796;10.956;2022-10-04T00:36:46;36.06;28.72;55.44;;
67900;Laerm;54700;51.796;10.956;2022-10-04T00:39:39;47.92;28.62;65.25;;
67900;Laerm;54700;51.796;10.956;2022-10-04T00:42:27;54.64;28.56;71.94;;
67900;Laerm;54700;51.796;10.956;2022-10-04T00:45:07;50.38;27.85;67.95;;
67900;Laerm;54700;51.796;10.956;2022-10-04T00:48:03;30.96;27.92;39.71;;
67900;Laerm;54700;51.796;10.956;2022-10-04T00:50:34;33.06;28.53;48.14;;
67900;Laerm;54700;51.796;10.956;2022-10-04T00:53:12;52.48;28.39;69.28;;
67900;Laerm;54700;51.796;10.956;2022-10-04T00:55:46;31.69;27.80;46.18;;
67900;Laerm;54700;51.796;10.956;2022-10-04T00:58:19;30.05;27.44;38.71;;
67900;Laerm;54700;51.796;10.956;2022-10-04T01:00:48;32.17;28.07;41.08;;
67900;Laerm;54700;51.796;10.956;2022-10-04T01:03:20;54.77;28.46;69.60;;
67900;Laerm;54700;51.796;10.956;2022-10-04T01:05:52;49.98;28.97;66.45;;
67900;Laerm;54700;51.796;10.956;2022-10-04T01:08:25;55.53;28.35;70.72;;
67900;Laerm;54700;51.796;10.956;2022-10-04T01:11:00;38.79;28.38;62.28;;
67900;Laerm;54700;51.796;10.956;2022-10-04T01:13:30;33.82;29.73;40.85;;
67900;Laerm;54700;51.796;10.956;2022-10-04T01:16:05;31.78;27.43;43.06;;
67900;Laerm;54700;51.796;10.956;2022-10-04T01:18:36;33.38;28.76;44.22;;
67900;Laerm;54700;51.796;10.956;2022-10-04T01:21:06;33.95;29.94;42.18;;
67900;Laerm;54700;51.796;10.956;2022-10-04T01:23:40;33.33;28.72;44.49;;
67900;Laerm;54700;51.796;10.956;2022-10-04T01:26:37;34.14;28.75;44.20;;
67900;Laerm;54700;51.796;10.956;2022-10-04T01:29:07;32.09;28.44;40.48;;
67900;Laerm;54700;51.796;10.956;2022-10-04T01:31:40;31.11;27.67;42.14;;
67900;Laerm;54700;51.796;10.956;2022-10-04T01:34:11;56.40;28.49;72.69;;
67900;Laerm;54700;51.796;10.956;2022-10-04T01:36:39;34.32;29.11;43.70;;
67900;Laerm;54700;51.796;10.956;2022-10-04T01:39:10;41.21;29.90;53.27;;
67900;Laerm;54700;51.796;10.956;2022-10-04T01:41:43;34.11;29.69;44.13;;
67900;Laerm;54700;51.796;10.956;2022-10-04T01:44:18;34.76;28.47;45.59;;
67900;Laerm;54700;51.796;10.956;2022-10-04T01:46:55;51.48;29.07;70.90;;
67900;Laerm;54700;51.796;10.956;2022-10-04T01:49:30;31.57;28.16;45.02;;
67900;Laerm;54700;51.796;10.956;2022-10-04T01:52:01;31.27;28.24;43.41;;
67900;Laerm;54700;51.796;10.956;2022-10-04T01:54:33;30.57;27.33;38.14;;
67900;Laerm;54700;51.796;10.956;2022-10-04T01:57:09;32.55;28.38;39.56;;
67900;Laerm;54700;51.796;10.956;2022-10-04T01:59:41;34.50;29.02;44.64;;
67900;Laerm;54700;51.796;10.956;2022-10-04T02:02:18;52.44;30.35;68.89;;
67900;Laerm;54700;51.796;10.956;2022-10-04T02:04:50;53.57;29.57;68.23;;
67900;Laerm;54700;51.796;10.956;2022-10-04T02:07:20;47.93;30.11;63.35;;
67900;Laerm;54700;51.796;10.956;2022-10-04T02:09:53;52.39;29.07;68.74;;
67900;Laerm;54700;51.796;10.956;2022-10-04T02:12:23;34.83;29.62;42.40;;
67900;Laerm;54700;51.796;10.956;2022-10-04T02:14:53;34.61;30.39;45.80;;
67900;Laerm;54700;51.796;10.956;2022-10-04T02:17:25;53.49;29.87;69.80;;
67900;Laerm;54700;51.796;10.956;2022-10-04T02:19:56;34.30;30.70;51.52;;
67900;Laerm;54700;51.796;10.956;2022-10-04T02:22:25;55.71;33.03;70.42;;
67900;Laerm;54700;51.796;10.956;2022-10-04T02:24:55;49.67;30.60;63.90;;
67900;Laerm;54700;51.796;10.956;2022-10-04T02:27:27;34.21;30.09;40.76;;
67900;Laerm;54700;51.796;10.956;2022-10-04T02:29:59;54.16;31.85;70.04;;
67900;Laerm;54700;51.796;10.956;2022-10-04T02:32:29;52.03;31.11;67.45;;
67900;Laerm;54700;51.796;10.956;2022-10-04T02:35:15;56.76;31.24;71.79;;
67900;Laerm;54700;51.796;10.956;2022-10-04T02:37:52;47.94;31.15;61.97;;
67900;Laerm;54700;51.796;10.956;2022-10-04T02:40:26;56.44;31.91;69.74;;
67900;Laerm;54700;51.796;10.956;2022-10-04T02:42:59;55.91;30.92;69.70;;
67900;Laerm;54700;51.796;10.956;2022-10-04T02:45:36;56.66;33.95;71.81;;
67900;Laerm;54700;51.796;10.956;2022-10-04T02:48:17;37.17;32.56;47.84;;
67900;Laerm;54700;51.796;10.956;2022-10-04T02:50:49;50.59;32.49;65.21;;
67900;Laerm;54700;51.796;10.956;2022-10-04T02:53:21;54.95;31.43;72.36;;
67900;Laerm;54700;51.796;10.956;2022-10-04T02:55:56;55.15;33.06;67.21;;
67900;Laerm;54700;51.796;10.956;2022-10-04T02:58:25;47.73;33.02;65.91;;
67900;Laerm;54700;51.796;10.956;2022-10-04T03:00:56;61.26;33.95;77.60;;
67900;Laerm;54700;51.796;10.956;2022-10-04T03:03:26;35.76;32.59;41.44;;
67900;Laerm;54700;51.796;10.956;2022-10-04T03:05:58;49.79;31.69;65.77;;
67900;Laerm;54700;51.796;10.956;2022-10-04T03:08:29;55.09;32.34;70.17;;
67900;Laerm;54700;51.796;10.956;2022-10-04T03:10:59;53.28;32.22;70.86;;
67900;Laerm;54700;51.796;10.956;2022-10-04T03:13:28;57.35;32.13;69.88;;
67900;Laerm;54700;51.796;10.956;2022-10-04T03:15:56;54.14;32.88;69.29;;
67900;Laerm;54700;51.796;10.956;2022-10-04T03:18:23;58.35;34.67;71.28;;
67900;Laerm;54700;51.796;10.956;2022-10-04T03:20:50;59.38;36.81;70.31;;
67900;Laerm;54700;51.796;10.956;2022-10-04T03:23:19;58.87;34.29;71.31;;
67900;Laerm;54700;51.796;10.956;2022-10-04T03:25:51;57.55;35.11;69.56;;
67900;Laerm;54700;51.796;10.956;2022-10-04T03:28:21;54.69;35.74;70.85;;
67900;Laerm;54700;51.796;10.956;2022-10-04T03:30:48;59.82;37.82;69.75;;
67900;Laerm;54700;51.796;10.956;2022-10-04T03:33:18;58.02;34.47;73.59;;
67900;Laerm;54700;51.796;10.956;2022-10-04T03:35:50;55.18;32.49;66.21;;
67900;Laerm;54700;51.796;10.956;2022-10-04T03:38:20;49.64;32.92;64.20;;
67900;Laerm;54700;51.796;10.956;2022-10-04T03:40:54;58.74;35.47;72.17;;
67900;Laerm;54700;51.796;10.956;2022-10-04T03:43:27;59.14;35.64;71.25;;
67900;Laerm;54700;51.796;10.956;2022-10-04T03:45:57;60.34;38.66;69.46;;
67900;Laerm;54700;51.796;10.956;2022-10-04T03:48:29;56.51;37.48;70.50;;
67900;Laerm;54700;51.796;10.956;2022-10-04T03:50:59;58.06;36.53;70.10;;
67900;Laerm;54700;51.796;10.956;2022-10-04T03:53:33;61.91;38.52;79.13;;
67900;Laerm;54700;51.796;10.956;2022-10-04T03:56:10;71.16;37.76;90.00;;
67900;Laerm;54700;51.796;10.956;2022-10-04T03:58:43;61.02;37.88;70.54;;
67900;Laerm;54700;51.796;10.956;2022-10-04T04:04:16;61.64;36.26;72.66;;
67900;Laerm;54700;51.796;10.956;2022-10-04T04:06:51;59.24;35.90;68.65;;
67900;Laerm;54700;51.796;10.956;2022-10-04T04:09:35;60.04;36.28;70.94;;
67900;Laerm;54700;51.796;10.956;2022-10-04T04:12:08;60.18;37.86;70.83;;
67900;Laerm;54700;51.796;10.956;2022-10-04T04:14:40;59.24;37.09;69.89;;
67900;Laerm;54700;51.796;10.956;2022-10-04T04:17:29;61.92;39.13;71.11;;
67900;Laerm;54700;51.796;10.956;2022-10-04T04:20:03;58.74;38.50;71.39;;
67900;Laerm;54700;51.796;10.956;2022-10-04T04:22:31;59.33;36.58;71.83;;
67900;Laerm;54700;51.796;10.956;2022-10-04T04:25:00;61.66;38.54;72.73;;
67900;Laerm;54700;51.796;10.956;2022-10-04T04:27:36;62.99;43.90;70.34;;
67900;Laerm;54700;51.796;10.956;2022-10-04T04:30:10;61.65;39.09;74.06;;
67900;Laerm;54700;51.796;10.956;2022-10-04T04:32:44;61.36;38.82;73.11;;
67900;Laerm;54700;51.796;10.956;2022-10-04T04:35:21;58.22;39.32;71.02;;
67900;Laerm;54700;51.796;10.956;2022-10-04T04:38:03;62.27;38.36;71.13;;
67900;Laerm;54700;51.796;10.956;2022-10-04T04:40:30;62.61;39.82;72.10;;
67900;Laerm;54700;51.796;10.956;2022-10-04T04:42:59;60.67;37.22;75.33;;
67900;Laerm;54700;51.796;10.956;2022-10-04T04:45:29;63.39;39.78;75.43;;
67900;Laerm;54700;51.796;10.956;2022-10-04T04:47:59;60.77;40.93;71.52;;
67900;Laerm;54700;51.796;10.956;2022-10-04T04:50:30;64.11;50.38;73.59;;
67900;Laerm;54700;51.796;10.956;2022-10-04T04:53:02;63.44;48.54;72.30;;
67900;Laerm;54700;51.796;10.956;2022-10-04T04:55:35;63.17;39.10;73.15;;
67900;Laerm;54700;51.796;10.956;2022-10-04T04:58:04;63.89;49.74;75.60;;
67900;Laerm;54700;51.796;10.956;2022-10-04T05:00:43;63.84;42.57;75.68;;
67900;Laerm;54700;51.796;10.956;2022-10-04T05:03:21;63.24;50.38;74.40;;
67900;Laerm;54700;51.796;10.956;2022-10-04T05:05:53;64.87;43.52;73.71;;
67900;Laerm;54700;51.796;10.956;2022-10-04T05:08:23;62.80;41.04;72.32;;
67900;Laerm;54700;51.796;10.956;2022-10-04T05:11:03;65.94;41.56;80.84;;
67900;Laerm;54700;51.796;10.956;2022-10-04T05:13:35;63.00;39.61;71.66;;
67900;Laerm;54700;51.796;10.956;2022-10-04T05:16:12;63.15;41.74;71.82;;
67900;Laerm;54700;51.796;10.956;2022-10-04T05:18:42;63.28;38.18;71.91;;
67900;Laerm;54700;51.796;10.956;2022-10-04T05:21:13;62.71;38.93;73.13;;
67900;Laerm;54700;51.796;10.956;2022-10-04T05:23:44;64.08;49.58;73.72;;
67900;Laerm;54700;51.796;10.956;2022-10-04T05:26:13;64.10;41.15;76.62;;
67900;Laerm;54700;51.796;10.956;2022-10-04T05:28:51;63.63;41.02;75.08;;
67900;Laerm;54700;51.796;10.956;2022-10-04T05:31:46;64.41;46.07;72.25;;
67900;Laerm;54700;51.796;10.956;2022-10-04T05:34:24;65.17;45.87;77.12;;
67900;Laerm;54700;51.796;10.956;2022-10-04T05:37:07;64.13;47.60;72.49;;
67900;Laerm;54700;51.796;10.956;2022-10-04T05:39:50;64.28;45.82;76.05;;
67900;Laerm;54700;51.796;10.956;2022-10-04T05:42:50;63.95;44.02;73.03;;
67900;Laerm;54700;51.796;10.956;2022-10-04T05:45:34;63.00;46.66;76.60;;
67900;Laerm;54700;51.796;10.956;2022-10-04T05:48:07;63.58;47.29;71.96;;
67900;Laerm;54700;51.796;10.956;2022-10-04T05:50:44;64.26;47.02;72.17;;
67900;Laerm;54700;51.796;10.956;2022-10-04T05:54:31;62.76;45.45;70.30;;
67900;Laerm;54700;51.796;10.956;2022-10-04T05:57:17;63.67;40.68;72.00;;
67900;Laerm;54700;51.796;10.956;2022-10-04T06:04:22;62.88;37.20;74.36;;
67900;Laerm;54700;51.796;10.956;2022-10-04T06:07:02;61.56;37.67;75.03;;
67900;Laerm;54700;51.796;10.956;2022-10-04T06:09:46;63.55;44.44;74.45;;
67900;Laerm;54700;51.796;10.956;2022-10-04T06:12:19;62.76;38.63;73.39;;
67900;Laerm;54700;51.796;10.956;2022-10-04T06:15:04;63.93;45.50;74.11;;
67900;Laerm;54700;51.796;10.956;2022-10-04T06:17:51;63.31;42.26;71.27;;
67900;Laerm;54700;51.796;10.956;2022-10-04T06:23:25;61.33;44.15;72.62;;
67900;Laerm;54700;51.796;10.956;2022-10-04T06:25:56;65.32;41.47;79.33;;
67900;Laerm;54700;51.796;10.956;2022-10-04T06:28:29;62.32;41.08;71.56;;
67900;Laerm;54700;51.796;10.956;2022-10-04T06:31:50;61.37;37.39;72.25;;
67900;Laerm;54700;51.796;10.956;2022-10-04T06:44:12;63.32;41.65;72.49;;
67900;Laerm;54700;51.796;10.956;2022-10-04T06:46:47;62.25;47.13;70.27;;
67900;Laerm;54700;51.796;10.956;2022-10-04T06:49:32;60.39;39.97;70.68;;
67900;Laerm;54700;51.796;10.956;2022-10-04T06:52:25;63.25;38.23;72.87;;
67900;Laerm;54700;51.796;10.956;2022-10-04T06:58:36;62.66;39.52;76.17;;
67900;Laerm;54700;51.796;10.956;2022-10-04T07:01:22;63.62;40.04;72.28;;
67900;Laerm;54700;51.796;10.956;2022-10-04T07:04:08;64.90;47.49;78.67;;
67900;Laerm;54700;51.796;10.956;2022-10-04T07:06:46;64.73;52.55;77.29;;
67900;Laerm;54700;51.796;10.956;2022-10-04T07:09:21;61.31;38.86;72.10;;
67900;Laerm;54700;51.796;10.956;2022-10-04T07:11:53;61.91;38.32;70.51;;
67900;Laerm;54700;51.796;10.956;2022-10-04T07:14:27;63.07;40.10;73.04;;
67900;Laerm;54700;51.796;10.956;2022-10-04T07:17:02;63.45;49.10;72.82;;
67900;Laerm;54700;51.796;10.956;2022-10-04T07:19:34;61.57;38.94;70.03;;
67900;Laerm;54700;51.796;10.956;2022-10-04T07:22:16;63.46;44.59;71.53;;
67900;Laerm;54700;51.796;10.956;2022-10-04T07:24:58;62.11;42.75;69.74;;
67900;Laerm;54700;51.796;10.956;2022-10-04T07:27:35;64.16;50.34;74.17;;
67900;Laerm;54700;51.796;10.956;2022-10-04T07:30:18;63.53;44.61;72.43;;
67900;Laerm;54700;51.796;10.956;2022-10-04T07:32:46;64.32;39.79;73.12;;
67900;Laerm;54700;51.796;10.956;2022-10-04T07:35:25;63.45;41.61;74.24;;
67900;Laerm;54700;51.796;10.956;2022-10-04T07:38:37;63.31;41.45;72.38;;
67900;Laerm;54700;51.796;10.956;2022-10-04T07:59:34;62.61;40.31;74.18;;
67900;Laerm;54700;51.796;10.956;2022-10-04T08:02:30;64.52;46.78;76.13;;
67900;Laerm;54700;51.796;10.956;2022-10-04T08:05:16;64.06;44.02;73.58;;
67900;Laerm;54700;51.796;10.956;2022-10-04T08:08:04;64.33;51.99;71.53;;
67900;Laerm;54700;51.796;10.956;2022-10-04T08:10:38;64.13;43.50;76.59;;
67900;Laerm;54700;51.796;10.956;2022-10-04T08:13:19;62.70;40.46;73.85;;
67900;Laerm;54700;51.796;10.956;2022-10-04T08:15:53;63.83;51.02;71.92;;
67900;Laerm;54700;51.796;10.956;2022-10-04T08:18:37;64.78;51.31;72.78;;
67900;Laerm;54700;51.796;10.956;2022-10-04T08:21:09;63.64;50.41;71.44;;
67900;Laerm;54700;51.796;10.956;2022-10-04T08:23:53;61.35;42.60;70.12;;
67900;Laerm;54700;51.796;10.956;2022-10-04T08:26:36;62.85;40.75;70.44;;
67900;Laerm;54700;51.796;10.956;2022-10-04T08:29:32;64.40;40.44;74.15;;
67900;Laerm;54700;51.796;10.956;2022-10-04T08:32:29;64.82;39.18;73.62;;
67900;Laerm;54700;51.796;10.956;2022-10-04T08:35:28;63.67;49.47;71.78;;
67900;Laerm;54700;51.796;10.956;2022-10-04T08:38:25;65.52;43.98;76.64;;
67900;Laerm;54700;51.796;10.956;2022-10-04T08:44:41;62.86;43.11;76.94;;
67900;Laerm;54700;51.796;10.956;2022-10-04T08:47:44;63.66;43.08;71.00;;
67900;Laerm;54700;51.796;10.956;2022-10-04T08:50:34;62.95;48.55;71.19;;
67900;Laerm;54700;51.796;10.956;2022-10-04T08:56:41;64.37;44.59;74.95;;
67900;Laerm;54700;51.796;10.956;2022-10-04T08:59:30;63.95;43.57;78.05;;
67900;Laerm;54700;51.796;10.956;2022-10-04T09:02:35;63.71;40.38;71.95;;
67900;Laerm;54700;51.796;10.956;2022-10-04T09:05:34;64.11;46.55;72.79;;
67900;Laerm;54700;51.796;10.956;2022-10-04T09:11:29;63.81;50.73;72.30;;
67900;Laerm;54700;51.796;10.956;2022-10-04T09:14:48;61.69;40.49;71.17;;
67900;Laerm;54700;51.796;10.956;2022-10-04T09:17:34;64.25;46.37;83.27;;
67900;Laerm;54700;51.796;10.956;2022-10-04T09:20:20;64.25;41.28;77.39;;
67900;Laerm;54700;51.796;10.956;2022-10-04T09:22:54;62.88;39.57;71.99;;
67900;Laerm;54700;51.796;10.956;2022-10-04T09:25:43;62.60;44.54;70.14;;
67900;Laerm;54700;51.796;10.956;2022-10-04T09:31:12;64.18;42.25;72.88;;
67900;Laerm;54700;51.796;10.956;2022-10-04T09:33:53;64.05;52.12;71.53;;
67900;Laerm;54700;51.796;10.956;2022-10-04T09:36:47;63.11;45.96;70.87;;
67900;Laerm;54700;51.796;10.956;2022-10-04T09:53:16;61.57;43.13;71.07;;
67900;Laerm;54700;51.796;10.956;2022-10-04T09:56:06;61.38;40.80;72.49;;
67900;Laerm;54700;51.796;10.956;2022-10-04T09:59:24;62.01;41.41;72.11;;
67900;Laerm;54700;51.796;10.956;2022-10-04T10:06:20;61.71;42.08;73.39;;
67900;Laerm;54700;51.796;10.956;2022-10-04T10:09:05;63.87;46.29;72.49;;
67900;Laerm;54700;51.796;10.956;2022-10-04T10:11:44;63.97;44.68;74.45;;
67900;Laerm;54700;51.796;10.956;2022-10-04T10:14:56;62.83;45.10;78.38;;
67900;Laerm;54700;51.796;10.956;2022-10-04T10:17:36;60.69;41.19;68.90;;
67900;Laerm;54700;51.796;10.956;2022-10-04T10:20:29;63.67;47.50;73.11;;
67900;Laerm;54700;51.796;10.956;2022-10-04T10:26:17;61.40;44.41;70.55;;
67900;Laerm;54700;51.796;10.956;2022-10-04T10:29:17;62.97;43.19;72.86;;
67900;Laerm;54700;51.796;10.956;2022-10-04T10:32:07;62.57;45.12;70.08;;
67900;Laerm;54700;51.796;10.956;2022-10-04T10:34:59;62.59;45.44;70.81;;
67900;Laerm;54700;51.796;10.956;2022-10-04T10:37:42;62.30;42.12;71.57;;
67900;Laerm;54700;51.796;10.956;2022-10-04T10:43:29;62.04;45.70;72.69;;
67900;Laerm;54700;51.796;10.956;2022-10-04T10:46:05;63.01;46.31;73.15;;
67900;Laerm;54700;51.796;10.956;2022-10-04T10:48:51;61.39;39.05;71.57;;
67900;Laerm;54700;51.796;10.956;2022-10-04T10:51:45;62.86;44.93;75.81;;
67900;Laerm;54700;51.796;10.956;2022-10-04T10:54:38;63.70;50.51;72.02;;
67900;Laerm;54700;51.796;10.956;2022-10-04T10:57:38;63.79;49.54;78.96;;
67900;Laerm;54700;51.796;10.956;2022-10-04T11:00:19;64.04;43.11;72.63;;
67900;Laerm;54700;51.796;10.956;2022-10-04T11:03:18;61.83;39.10;70.30;;
67900;Laerm;54700;51.796;10.956;2022-10-04T11:06:27;61.47;38.43;72.26;;
67900;Laerm;54700;51.796;10.956;2022-10-04T11:09:31;62.71;37.00;71.44;;
67900;Laerm;54700;51.796;10.956;2022-10-04T11:12:40;63.65;42.87;74.00;;
67900;Laerm;54700;51.796;10.956;2022-10-04T11:15:48;63.59;46.71;72.82;;
67900;Laerm;54700;51.796;10.956;2022-10-04T11:21:45;60.93;37.99;69.83;;
67900;Laerm;54700;51.796;10.956;2022-10-04T11:28:01;64.11;36.66;73.59;;
67900;Laerm;54700;51.796;10.956;2022-10-04T11:31:16;63.46;47.57;74.91;;
67900;Laerm;54700;51.796;10.956;2022-10-04T11:34:15;63.26;47.54;72.27;;
67900;Laerm;54700;51.796;10.956;2022-10-04T11:37:00;63.38;42.84;72.61;;
67900;Laerm;54700;51.796;10.956;2022-10-04T11:39:54;63.19;47.26;73.70;;
67900;Laerm;54700;51.796;10.956;2022-10-04T11:42:42;65.28;43.49;79.92;;
67900;Laerm;54700;51.796;10.956;2022-10-04T11:45:31;62.20;44.87;75.01;;
67900;Laerm;54700;51.796;10.956;2022-10-04T11:48:21;64.03;43.97;72.65;;
67900;Laerm;54700;51.796;10.956;2022-10-04T11:51:28;63.38;47.96;72.27;;
67900;Laerm;54700;51.796;10.956;2022-10-04T11:54:20;64.36;47.92;73.80;;
67900;Laerm;54700;51.796;10.956;2022-10-04T11:57:11;62.74;44.60;73.57;;
67900;Laerm;54700;51.796;10.956;2022-10-04T11:59:50;63.36;37.96;72.44;;
67900;Laerm;54700;51.796;10.956;2022-10-04T12:02:45;64.26;40.54;77.49;;
67900;Laerm;54700;51.796;10.956;2022-10-04T12:05:37;62.97;38.14;73.18;;
67900;Laerm;54700;51.796;10.956;2022-10-04T12:08:29;62.95;47.42;70.89;;
67900;Laerm;54700;51.796;10.956;2022-10-04T12:11:18;63.72;36.96;77.18;;
67900;Laerm;54700;51.796;10.956;2022-10-04T12:14:02;63.13;39.17;72.54;;
67900;Laerm;54700;51.796;10.956;2022-10-04T12:17:13;61.44;40.67;71.29;;
67900;Laerm;54700;51.796;10.956;2022-10-04T12:19:59;61.73;41.37;72.16;;
67900;Laerm;54700;51.796;10.956;2022-10-04T12:22:45;62.94;40.13;74.00;;
67900;Laerm;54700;51.796;10.956;2022-10-04T12:25:46;63.06;39.06;71.56;;
67900;Laerm;54700;51.796;10.956;2022-10-04T12:31:27;63.65;42.03;73.95;;
67900;Laerm;54700;51.796;10.956;2022-10-04T12:34:03;62.80;45.42;73.75;;
67900;Laerm;54700;51.796;10.956;2022-10-04T12:36:56;63.72;41.90;76.79;;
67900;Laerm;54700;51.796;10.956;2022-10-04T12:39:36;62.39;36.44;71.17;;
67900;Laerm;54700;51.796;10.956;2022-10-04T12:42:17;62.37;36.48;70.39;;
67900;Laerm;54700;51.796;10.956;2022-10-04T12:45:12;64.49;52.59;84.66;;
67900;Laerm;54700;51.796;10.956;2022-10-04T12:48:12;64.32;46.93;71.94;;
67900;Laerm;54700;51.796;10.956;2022-10-04T12:50:52;61.80;36.81;70.43;;
67900;Laerm;54700;51.796;10.956;2022-10-04T12:53:34;63.94;48.83;70.82;;
67900;Laerm;54700;51.796;10.956;2022-10-04T12:56:18;62.97;47.59;69.98;;
67900;Laerm;54700;51.796;10.956;2022-10-04T12:59:10;64.11;46.13;74.16;;
67900;Laerm;54700;51.796;10.956;2022-10-04T13:01:49;66.48;50.40;82.59;;
67900;Laerm;54700;51.796;10.956;2022-10-04T13:04:27;63.52;48.81;72.29;;
67900;Laerm;54700;51.796;10.956;2022-10-04T13:07:24;63.57;50.67;73.56;;
67900;Laerm;54700;51.796;10.956;2022-10-04T13:10:02;62.59;45.49;71.79;;
67900;Laerm;54700;51.796;10.956;2022-10-04T13:13:10;63.88;49.60;76.88;;
67900;Laerm;54700;51.796;10.956;2022-10-04T13:15:51;64.53;46.31;75.41;;
67900;Laerm;54700;51.796;10.956;2022-10-04T13:18:28;64.31;47.76;73.68;;
67900;Laerm;54700;51.796;10.956;2022-10-04T13:21:00;63.49;50.57;69.42;;
67900;Laerm;54700;51.796;10.956;2022-10-04T13:23:43;63.85;51.67;71.70;;
67900;Laerm;54700;51.796;10.956;2022-10-04T13:26:36;64.60;46.35;77.04;;
67900;Laerm;54700;51.796;10.956;2022-10-04T13:29:21;63.30;50.16;72.79;;
67900;Laerm;54700;51.796;10.956;2022-10-04T13:31:54;63.88;50.17;72.43;;
67900;Laerm;54700;51.796;10.956;2022-10-04T13:34:34;65.76;49.16;77.62;;
67900;Laerm;54700;51.796;10.956;2022-10-04T13:37:21;62.35;40.23;70.10;;
67900;Laerm;54700;51.796;10.956;2022-10-04T13:43:19;62.39;35.51;73.18;;
67900;Laerm;54700;51.796;10.956;2022-10-04T13:46:10;63.90;46.26;70.43;;
67900;Laerm;54700;51.796;10.956;2022-10-04T13:49:01;61.90;40.19;72.90;;
67900;Laerm;54700;51.796;10.956;2022-10-04T13:52:01;66.42;51.86;81.44;;
67900;Laerm;54700;51.796;10.956;2022-10-04T13:55:00;66.38;47.93;82.70;;
67900;Laerm;54700;51.796;10.956;2022-10-04T13:58:00;63.71;41.75;71.73;;
67900;Laerm;54700;51.796;10.956;2022-10-04T14:00:50;64.35;49.50;71.58;;
67900;Laerm;54700;51.796;10.956;2022-10-04T14:03:38;61.91;38.34;72.98;;
67900;Laerm;54700;51.796;10.956;2022-10-04T14:06:33;63.38;43.92;72.07;;
67900;Laerm;54700;51.796;10.956;2022-10-04T14:12:23;63.58;49.34;75.46;;
67900;Laerm;54700;51.796;10.956;2022-10-04T14:21:53;64.47;46.24;73.23;;
67900;Laerm;54700;51.796;10.956;2022-10-04T14:24:56;64.42;46.25;70.94;;
67900;Laerm;54700;51.796;10.956;2022-10-04T14:30:28;63.91;43.42;72.96;;
67900;Laerm;54700;51.796;10.956;2022-10-04T14:33:30;62.65;46.44;71.26;;
67900;Laerm;54700;51.796;10.956;2022-10-04T14:36:18;63.53;41.93;73.20;;
67900;Laerm;54700;51.796;10.956;2022-10-04T14:39:10;65.28;53.98;77.35;;
67900;Laerm;54700;51.796;10.956;2022-10-04T14:45:12;63.08;35.57;70.70;;
67900;Laerm;54700;51.796;10.956;2022-10-04T14:48:07;64.33;48.49;82.62;;
67900;Laerm;54700;51.796;10.956;2022-10-04T14:50:49;65.24;38.82;86.41;;
67900;Laerm;54700;51.796;10.956;2022-10-04T14:53:29;65.76;42.47;78.12;;
67900;Laerm;54700;51.796;10.956;2022-10-04T14:56:22;65.17;42.73;79.60;;
67900;Laerm;54700;51.796;10.956;2022-10-04T14:59:04;64.70;42.92;71.87;;
67900;Laerm;54700;51.796;10.956;2022-10-04T15:01:39;63.60;43.33;71.00;;
67900;Laerm;54700;51.796;10.956;2022-10-04T15:04:19;63.75;40.33;74.70;;
67900;Laerm;54700;51.796;10.956;2022-10-04T15:06:51;64.15;44.73;72.72;;
67900;Laerm;54700;51.796;10.956;2022-10-04T15:09:36;63.54;40.69;79.17;;
67900;Laerm;54700;51.796;10.956;2022-10-04T15:12:37;63.44;45.61;72.43;;
67900;Laerm;54700;51.796;10.956;2022-10-04T15:15:20;64.32;41.92;82.91;;
67900;Laerm;54700;51.796;10.956;2022-10-04T15:17:56;64.30;39.84;72.63;;
67900;Laerm;54700;51.796;10.956;2022-10-04T15:20:32;63.67;41.16;77.72;;
67900;Laerm;54700;51.796;10.956;2022-10-04T15:23:09;63.56;43.98;73.36;;
67900;Laerm;54700;51.796;10.956;2022-10-04T15:25:42;61.93;44.86;70.57;;
67900;Laerm;54700;51.796;10.956;2022-10-04T15:28:27;63.62;45.75;73.51;;
67900;Laerm;54700;51.796;10.956;2022-10-04T15:31:03;61.98;42.95;69.92;;
67900;Laerm;54700;51.796;10.956;2022-10-04T15:33:39;63.36;43.74;73.20;;
67900;Laerm;54700;51.796;10.956;2022-10-04T15:36:39;63.43;35.10;78.81;;
67900;Laerm;54700;51.796;10.956;2022-10-04T15:39:31;65.35;44.18;80.83;;
67900;Laerm;54700;51.796;10.956;2022-10-04T15:42:09;62.14;39.33;71.02;;
67900;Laerm;54700;51.796;10.956;2022-10-04T15:44:58;61.62;34.22;70.09;;
67900;Laerm;54700;51.796;10.956;2022-10-04T15:47:32;63.70;42.78;72.30;;
67900;Laerm;54700;51.796;10.956;2022-10-04T15:50:07;61.04;38.02;69.33;;
67900;Laerm;54700;51.796;10.956;2022-10-04T15:53:15;61.97;44.02;72.27;;
67900;Laerm;54700;51.796;10.956;2022-10-04T15:56:03;61.70;39.09;69.80;;
67900;Laerm;54700;51.796;10.956;2022-10-04T15:58:48;64.84;41.23;75.01;;
67900;Laerm;54700;51.796;10.956;2022-10-04T16:01:47;62.89;41.55;71.28;;
67900;Laerm;54700;51.796;10.956;2022-10-04T16:04:30;61.25;43.77;68.64;;
67900;Laerm;54700;51.796;10.956;2022-10-04T16:07:18;64.89;40.16;78.23;;
67900;Laerm;54700;51.796;10.956;2022-10-04T16:09:50;62.23;41.98;70.91;;
67900;Laerm;54700;51.796;10.956;2022-10-04T16:12:25;64.56;46.39;71.89;;
67900;Laerm;54700;51.796;10.956;2022-10-04T16:14:57;61.74;38.21;76.33;;
67900;Laerm;54700;51.796;10.956;2022-10-04T16:17:52;63.07;36.68;76.26;;
67900;Laerm;54700;51.796;10.956;2022-10-04T16:20:51;63.04;32.06;75.33;;
67900;Laerm;54700;51.796;10.956;2022-10-04T16:23:29;62.67;30.93;71.77;;
67900;Laerm;54700;51.796;10.956;2022-10-04T16:25:58;62.52;35.61;70.36;;
67900;Laerm;54700;51.796;10.956;2022-10-04T16:28:42;63.56;36.04;74.01;;
67900;Laerm;54700;51.796;10.956;2022-10-04T16:31:26;61.40;33.27;70.12;;
67900;Laerm;54700;51.796;10.956;2022-10-04T16:34:16;64.09;42.18;73.96;;
67900;Laerm;54700;51.796;10.956;2022-10-04T16:36:50;59.10;32.14;70.72;;
67900;Laerm;54700;51.796;10.956;2022-10-04T16:39:34;62.70;32.21;72.46;;
67900;Laerm;54700;51.796;10.956;2022-10-04T16:42:21;61.48;35.64;71.70;;
67900;Laerm;54700;51.796;10.956;2022-10-04T16:44:55;65.70;40.13;80.15;;
67900;Laerm;54700;51.796;10.956;2022-10-04T16:47:29;63.45;35.50;73.73;;
67900;Laerm;54700;51.796;10.956;2022-10-04T16:49:59;60.97;32.85;68.77;;